CEFAS Endeavour — VQHF3 — position and weather

sailwx.info

Track history (hours):
 
Tides and Currents Weather Stations Pressure Air Temp Water Temp Dewpoint Dewpoint Depression Visibility Wind Speed Wind Dir Waves Ship Positions

Oceanographic research ship CEFAS Endeavour (UK)

Detailed information on ship capabilities available from University of Delaware's Ocean Information Center.

Last reported at 2014-Sep-21 21:13 UTC. Time now 2014-Sep-22 04:14 UTC.
Position N 53°57' W 006°04'.

Length 74 m; draft 5.3 m.

Type: Ship. MMSI: 235005270.

Date/timePositionNaut miles runAvg speedWind from/ knotsBaromVisibWave heightAir tempDewpointWater temp
2014-Sep-21 21:13N 53°57' W 006°04'1 0.9
2014-Sep-21 20:28N 53°57' W 006°04'0 0.4
2014-Sep-21 19:22N 53°57' W 006°03'0 0.3
2014-Sep-21 18:33N 53°57' W 006°03'3 2.6
2014-Sep-21 17:30N 53°54' W 006°04'84 3.8
2014-Sep-20 19:29N 53°40' W 003°45'4 4.2
2014-Sep-20 18:33N 53°39' W 003°38'1 1.0
2014-Sep-20 17:30N 53°38' W 003°37'1 1.0
2014-Sep-20 16:27N 53°37' W 003°37'3 3.6
2014-Sep-20 15:33N 53°38' W 003°43'9 8.8
2014-Sep-20 14:33N 53°42' W 003°56'1 0.9
2014-Sep-20 13:12N 53°43' W 003°56'5 8.4
2014-Sep-20 12:33N 53°46' W 003°48'3 3.5
2014-Sep-20 11:33N 53°49' W 003°51'4 4.4
2014-Sep-20 10:33N 53°49' W 003°59'6 6.2
2014-Sep-20 09:33N 53°48' W 004°09'6 5.4
2014-Sep-20 08:32N 53°51' W 004°16'10 5.1
2014-Sep-20 06:28N 53°60' W 004°26'9 1.3
2014-Sep-19 23:20N 54°09' W 004°28'0 0.0
2014-Sep-19 21:32N 54°09' W 004°28'0 0.0
2014-Sep-19 18:23N 54°09' W 004°28'0 0.0
2014-Sep-19 02:08N 54°09' W 004°28'4 0.5
2014-Sep-18 18:31N 54°10' W 004°22'1212.1
2014-Sep-18 17:34N 54°16' W 004°05'6 6.5
2014-Sep-18 16:33N 54°20' W 003°55'10 9.4
2014-Sep-18 15:32N 54°29' W 003°55'8 6.5
2014-Sep-18 14:23N 54°36' W 003°52'6 7.0
2014-Sep-18 13:31N 54°41' W 003°45'27 3.7
2014-Sep-18 06:09N 54°42' W 004°32'1 1.3
2014-Sep-18 05:31N 54°41' W 004°31'0 0.3
2014-Sep-18 04:33N 54°41' W 004°32'6 2.5
2014-Sep-18 02:19N 54°38' W 004°24'8 4.0
2014-Sep-18 00:12N 54°38' W 004°09'3 5.1
2014-Sep-17 23:33N 54°38' W 004°03'9 8.6
2014-Sep-17 22:33N 54°37' W 003°49'7 6.5
2014-Sep-17 21:32N 54°38' W 003°37'3 0.9
2014-Sep-17 18:33N 54°41' W 003°39'7 3.4
2014-Sep-17 16:21N 54°34' W 003°43'5 6.6
2014-Sep-17 15:33N 54°28' W 003°41'6 5.6
2014-Sep-17 14:34N 54°23' W 003°41'4 3.8
2014-Sep-17 13:33N 54°19' W 003°38'5 5.3
2014-Sep-17 12:33N 54°18' W 003°29'4 4.4
2014-Sep-17 11:34N 54°13' W 003°27'5 5.0
2014-Sep-17 10:33N 54°09' W 003°24'6 5.7
2014-Sep-17 09:33N 54°08' W 003°34'4 4.2
2014-Sep-17 08:33N 54°08' W 003°41'7 7.3
2014-Sep-17 07:33N 54°04' W 003°50'7 6.5
2014-Sep-17 06:33N 53°57' W 003°52'2 1.9
2014-Sep-17 05:33N 53°58' W 003°49'3 3.2
2014-Sep-17 04:33N 54°01' W 003°50'4 3.8
2014-Sep-17 03:34N 54°04' W 003°46'2 2.0
2014-Sep-17 02:33N 54°03' W 003°49'2 2.2
2014-Sep-17 01:33N 54°01' W 003°48'3 3.3
2014-Sep-17 00:33N 53°59' W 003°44'4 4.3
2014-Sep-16 23:33N 53°56' W 003°39'5 4.8
2014-Sep-16 22:34N 53°53' W 003°32'5 4.7
2014-Sep-16 21:33N 53°50' W 003°27'3 2.9
2014-Sep-16 20:33N 53°47' W 003°27'1 1.1
2014-Sep-16 19:33N 53°47' W 003°28'3 3.2
2014-Sep-16 18:33N 53°50' W 003°29'7 6.7
2014-Sep-16 17:33N 53°56' W 003°33'1 1.2
2014-Sep-16 16:33N 53°56' W 003°35'8 7.8
2014-Sep-16 15:33N 53°57' W 003°22'4 3.6
2014-Sep-16 14:33N 53°54' W 003°18'3 3.0
2014-Sep-16 13:33N 53°53' W 003°23'9 8.8
2014-Sep-16 12:33N 53°48' W 003°10'3 2.8
2014-Sep-16 11:33N 53°47' W 003°14'4 3.6
2014-Sep-16 10:33N 53°44' W 003°19'6 5.5
2014-Sep-16 09:33N 53°39' W 003°17'4 3.6
2014-Sep-16 08:33N 53°36' W 003°20'2 1.6
2014-Sep-16 07:33N 53°35' W 003°22'6 6.1
2014-Sep-16 06:33N 53°29' W 003°21'1 1.4
2014-Sep-16 05:32N 53°28' W 003°23'2 2.0
2014-Sep-16 04:33N 53°28' W 003°26'7 6.4
2014-Sep-16 03:27N 53°33' W 003°33'6 6.6
2014-Sep-16 02:33N 53°39' W 003°37'3 3.5
2014-Sep-16 01:33N 53°41' W 003°42'1 0.7
2014-Sep-16 00:33N 53°41' W 003°43'1 0.6
2014-Sep-15 23:33N 53°40' W 003°44'0 0.2
2014-Sep-15 22:33N 53°40' W 003°44'0 0.4
2014-Sep-15 21:33N 53°40' W 003°43'1 0.7
2014-Sep-15 20:33N 53°40' W 003°42'1 0.9
2014-Sep-15 19:33N 53°41' W 003°41'2 2.1
2014-Sep-15 18:33N 53°39' W 003°38'2 2.0
2014-Sep-15 17:33N 53°37' W 003°38'6 6.0
2014-Sep-15 16:33N 53°32' W 003°42'3 2.8
2014-Sep-15 15:29N 53°29' W 003°43'12 2.0
2014-Sep-15 09:27N 53°33' W 004°02'  
Track history (hours):
 
Tides and Currents Weather Stations Pressure Air Temp Water Temp Dewpoint Dewpoint Depression Visibility Wind Speed Wind Dir Waves Ship Positions

Oceanographic research ship CEFAS Endeavour (UK)

Detailed information on ship capabilities available from University of Delaware's Ocean Information Center.

Last reported at 2014-Sep-21 21:13 UTC. Time now 2014-Sep-22 04:14 UTC.
Position N 53°57' W 006°04'.

Length 74 m; draft 5.3 m.

Type: Ship. MMSI: 235005270.

Date/timePositionNaut miles runAvg speedWind from/ knotsBaromVisibWave heightAir tempDewpointWater temp
2014-Sep-21 21:13N 53°57' W 006°04'1 0.9
2014-Sep-21 20:28N 53°57' W 006°04'0 0.4
2014-Sep-21 19:22N 53°57' W 006°03'0 0.3
2014-Sep-21 18:33N 53°57' W 006°03'3 2.6
2014-Sep-21 17:30N 53°54' W 006°04'84 3.8
2014-Sep-20 19:29N 53°40' W 003°45'4 4.2
2014-Sep-20 18:33N 53°39' W 003°38'1 1.0
2014-Sep-20 17:30N 53°38' W 003°37'1 1.0
2014-Sep-20 16:27N 53°37' W 003°37'3 3.6
2014-Sep-20 15:33N 53°38' W 003°43'9 8.8
2014-Sep-20 14:33N 53°42' W 003°56'1 0.9
2014-Sep-20 13:12N 53°43' W 003°56'5 8.4
2014-Sep-20 12:33N 53°46' W 003°48'3 3.5
2014-Sep-20 11:33N 53°49' W 003°51'4 4.4
2014-Sep-20 10:33N 53°49' W 003°59'6 6.2
2014-Sep-20 09:33N 53°48' W 004°09'6 5.4
2014-Sep-20 08:32N 53°51' W 004°16'10 5.1
2014-Sep-20 06:28N 53°60' W 004°26'9 1.3
2014-Sep-19 23:20N 54°09' W 004°28'0 0.0
2014-Sep-19 21:32N 54°09' W 004°28'0 0.0
2014-Sep-19 18:23N 54°09' W 004°28'0 0.0
2014-Sep-19 02:08N 54°09' W 004°28'4 0.5
2014-Sep-18 18:31N 54°10' W 004°22'1212.1
2014-Sep-18 17:34N 54°16' W 004°05'6 6.5
2014-Sep-18 16:33N 54°20' W 003°55'10 9.4
2014-Sep-18 15:32N 54°29' W 003°55'8 6.5
2014-Sep-18 14:23N 54°36' W 003°52'6 7.0
2014-Sep-18 13:31N 54°41' W 003°45'27 3.7
2014-Sep-18 06:09N 54°42' W 004°32'1 1.3
2014-Sep-18 05:31N 54°41' W 004°31'0 0.3
2014-Sep-18 04:33N 54°41' W 004°32'6 2.5
2014-Sep-18 02:19N 54°38' W 004°24'8 4.0
2014-Sep-18 00:12N 54°38' W 004°09'3 5.1
2014-Sep-17 23:33N 54°38' W 004°03'9 8.6
2014-Sep-17 22:33N 54°37' W 003°49'7 6.5
2014-Sep-17 21:32N 54°38' W 003°37'3 0.9
2014-Sep-17 18:33N 54°41' W 003°39'7 3.4
2014-Sep-17 16:21N 54°34' W 003°43'5 6.6
2014-Sep-17 15:33N 54°28' W 003°41'6 5.6
2014-Sep-17 14:34N 54°23' W 003°41'4 3.8
2014-Sep-17 13:33N 54°19' W 003°38'5 5.3
2014-Sep-17 12:33N 54°18' W 003°29'4 4.4
2014-Sep-17 11:34N 54°13' W 003°27'5 5.0
2014-Sep-17 10:33N 54°09' W 003°24'6 5.7
2014-Sep-17 09:33N 54°08' W 003°34'4 4.2
2014-Sep-17 08:33N 54°08' W 003°41'7 7.3
2014-Sep-17 07:33N 54°04' W 003°50'7 6.5
2014-Sep-17 06:33N 53°57' W 003°52'2 1.9
2014-Sep-17 05:33N 53°58' W 003°49'3 3.2
2014-Sep-17 04:33N 54°01' W 003°50'4 3.8
2014-Sep-17 03:34N 54°04' W 003°46'2 2.0
2014-Sep-17 02:33N 54°03' W 003°49'2 2.2
2014-Sep-17 01:33N 54°01' W 003°48'3 3.3
2014-Sep-17 00:33N 53°59' W 003°44'4 4.3
2014-Sep-16 23:33N 53°56' W 003°39'5 4.8
2014-Sep-16 22:34N 53°53' W 003°32'5 4.7
2014-Sep-16 21:33N 53°50' W 003°27'3 2.9
2014-Sep-16 20:33N 53°47' W 003°27'1 1.1
2014-Sep-16 19:33N 53°47' W 003°28'3 3.2
2014-Sep-16 18:33N 53°50' W 003°29'7 6.7
2014-Sep-16 17:33N 53°56' W 003°33'1 1.2
2014-Sep-16 16:33N 53°56' W 003°35'8 7.8
2014-Sep-16 15:33N 53°57' W 003°22'4 3.6
2014-Sep-16 14:33N 53°54' W 003°18'3 3.0
2014-Sep-16 13:33N 53°53' W 003°23'9 8.8
2014-Sep-16 12:33N 53°48' W 003°10'3 2.8
2014-Sep-16 11:33N 53°47' W 003°14'4 3.6
2014-Sep-16 10:33N 53°44' W 003°19'6 5.5
2014-Sep-16 09:33N 53°39' W 003°17'4 3.6
2014-Sep-16 08:33N 53°36' W 003°20'2 1.6
2014-Sep-16 07:33N 53°35' W 003°22'6 6.1
2014-Sep-16 06:33N 53°29' W 003°21'1 1.4
2014-Sep-16 05:32N 53°28' W 003°23'2 2.0
2014-Sep-16 04:33N 53°28' W 003°26'7 6.4
2014-Sep-16 03:27N 53°33' W 003°33'6 6.6
2014-Sep-16 02:33N 53°39' W 003°37'3 3.5
2014-Sep-16 01:33N 53°41' W 003°42'1 0.7
2014-Sep-16 00:33N 53°41' W 003°43'1 0.6
2014-Sep-15 23:33N 53°40' W 003°44'0 0.2
2014-Sep-15 22:33N 53°40' W 003°44'0 0.4
2014-Sep-15 21:33N 53°40' W 003°43'1 0.7
2014-Sep-15 20:33N 53°40' W 003°42'1 0.9
2014-Sep-15 19:33N 53°41' W 003°41'2 2.1
2014-Sep-15 18:33N 53°39' W 003°38'2 2.0
2014-Sep-15 17:33N 53°37' W 003°38'6 6.0
2014-Sep-15 16:33N 53°32' W 003°42'3 2.8
2014-Sep-15 15:29N 53°29' W 003°43'12 2.0
2014-Sep-15 09:27N 53°33' W 004°02'  

Dump ship's entire track history